Time;durP1;ratioP1;P1;durP2;ratioP2;P2;SDS_P1;SDS_P2;PMS_P1;PMS_P2;Temp;Humidity;BMP_temperature;BMP_pressure;BME280_temperature;BME280_humidity;BME280_pressure;Samples;Min_cycle;Max_cycle;Signal;HPM_P1;HPM_P2
2021/04/22 00:00:22;;;;;;;;;;;20.10;42.70;;;;;;1019623;29;19915;-69
2021/04/22 00:00:52;;;;;;;;;;;20.10;42.70;;;;;;1016859;29;19907;-68
2021/04/22 00:01:23;;;;;;;;;;;20.10;42.70;;;;;;1012572;29;19918;-68
2021/04/22 00:01:53;;;;;;;;;;;20.10;42.70;;;;;;1016849;29;19903;-67
2021/04/22 00:02:24;;;;;;;;;;;20.10;42.70;;;;;;1016790;29;19911;-69
2021/04/22 00:02:54;;;;;;;;;;;20.10;42.60;;;;;;1024645;29;20376;-68
2021/04/22 00:03:25;;;;;;;;;;;20.10;42.60;;;;;;1023974;29;19915;-68
2021/04/22 00:03:55;;;;;;;;;;;20.10;42.60;;;;;;1024714;29;19962;-68
2021/04/22 00:04:26;;;;;;;;;;;20.10;42.60;;;;;;1020577;29;19911;-68
2021/04/22 00:04:56;;;;;;;;;;;20.10;42.60;;;;;;1016822;29;19915;-68
2021/04/22 00:05:28;;;;;;;;;;;20.10;42.50;;;;;;1016253;29;20336;-68
2021/04/22 00:05:59;;;;;;;;;;;20.10;42.50;;;;;;1020687;29;20438;-68
2021/04/22 00:06:29;;;;;;;;;;;20.10;42.50;;;;;;1020821;29;19918;-68
2021/04/22 00:06:59;;;;;;;;;;;20.10;43.10;;;;;;1024375;29;19911;-68
2021/04/22 00:07:30;;;;;;;;;;;20.10;42.50;;;;;;1020401;29;20025;-68
2021/04/22 00:08:00;;;;;;;;;;;20.10;43.10;;;;;;1020305;29;19917;-68
2021/04/22 00:08:31;;;;;;;;;;;20.10;42.50;;;;;;1020202;29;19911;-67
2021/04/22 00:09:02;;;;;;;;;;;20.10;42.40;;;;;;1016684;29;20017;-69
2021/04/22 00:09:32;;;;;;;;;;;20.10;42.40;;;;;;1018878;29;19954;-68
2021/04/22 00:10:06;;;;;;;;;;;20.10;42.50;;;;;;1020616;29;20411;-69
2021/04/22 00:10:44;;;;;;;;;;;20.10;42.40;;;;;;1018992;29;19915;-68
2021/04/22 00:11:14;;;;;;;;;;;20.10;42.40;;;;;;1020624;29;19962;-68
2021/04/22 00:11:45;;;;;;;;;;;20.10;42.40;;;;;;1016423;29;19911;-68
2021/04/22 00:12:15;;;;;;;;;;;20.00;42.30;;;;;;1016648;29;19911;-68
2021/04/22 00:12:46;;;;;;;;;;;20.10;42.40;;;;;;1012956;29;19912;-69
2021/04/22 00:13:17;;;;;;;;;;;20.10;42.40;;;;;;1009035;29;20473;-68
2021/04/22 00:13:48;;;;;;;;;;;20.10;42.40;;;;;;1012556;29;20350;-69
2021/04/22 00:14:18;;;;;;;;;;;20.00;42.30;;;;;;1014763;29;19911;-67
2021/04/22 00:14:49;;;;;;;;;;;20.10;42.30;;;;;;1020884;29;19915;-68
2021/04/22 00:15:19;;;;;;;;;;;20.10;42.30;;;;;;1023763;29;19910;-68
2021/04/22 00:15:50;;;;;;;;;;;20.00;42.30;;;;;;1024388;29;20580;-69
2021/04/22 00:16:20;;;;;;;;;;;20.10;42.30;;;;;;1024425;29;19914;-68
2021/04/22 00:16:51;;;;;;;;;;;20.00;42.20;;;;;;1024577;29;19949;-68
2021/04/22 00:17:21;;;;;;;;;;;20.10;42.30;;;;;;1024566;29;20388;-68
2021/04/22 00:17:52;;;;;;;;;;;20.00;42.20;;;;;;1024473;29;19911;-69
2021/04/22 00:18:23;;;;;;;;;;;20.10;42.20;;;;;;1023710;29;19986;-68
2021/04/22 00:18:53;;;;;;;;;;;20.10;42.20;;;;;;1020191;29;19911;-68
2021/04/22 00:19:24;;;;;;;;;;;20.00;42.20;;;;;;1016575;29;20002;-68
2021/04/22 00:19:54;;;;;;;;;;;20.00;42.20;;;;;;1016670;29;19911;-68
2021/04/22 00:20:25;;;;;;;;;;;20.10;42.20;;;;;;1015832;29;19915;-68
2021/04/22 00:20:55;;;;;;;;;;;20.10;42.30;;;;;;1020836;29;19962;-68
2021/04/22 00:21:26;;;;;;;;;;;20.10;42.30;;;;;;1024498;29;19911;-68
2021/04/22 00:21:56;;;;;;;;;;;20.10;42.30;;;;;;1020671;29;19911;-68
2021/04/22 00:22:27;;;;;;;;;;;20.10;42.20;;;;;;1020276;29;19910;-68
2021/04/22 00:22:57;;;;;;;;;;;20.10;42.20;;;;;;1016738;29;20483;-68
2021/04/22 00:23:27;;;;;;;;;;;20.10;42.20;;;;;;1019649;29;19919;-69
2021/04/22 00:23:58;;;;;;;;;;;20.20;42.20;;;;;;1020866;29;19929;-69
2021/04/22 00:24:29;;;;;;;;;;;20.20;42.30;;;;;;1020289;29;20009;-67
2021/04/22 00:24:59;;;;;;;;;;;20.10;42.20;;;;;;1020643;29;19911;-68
2021/04/22 00:25:30;;;;;;;;;;;20.20;42.30;;;;;;1020387;29;20337;-68
2021/04/22 00:26:00;;;;;;;;;;;20.10;42.80;;;;;;1012773;29;19912;-68
2021/04/22 00:26:30;;;;;;;;;;;20.20;42.20;;;;;;1012557;29;19919;-69
2021/04/22 00:27:01;;;;;;;;;;;20.20;42.20;;;;;;1012753;29;19911;-68
2021/04/22 00:27:31;;;;;;;;;;;20.20;42.20;;;;;;1012700;29;19918;-68
2021/04/22 00:28:02;;;;;;;;;;;20.20;42.20;;;;;;1020289;29;20280;-68
2021/04/22 00:28:32;;;;;;;;;;;20.20;42.20;;;;;;1016138;29;19916;-68
2021/04/22 00:29:03;;;;;;;;;;;20.20;42.10;;;;;;1016613;29;20364;-68
2021/04/22 00:29:33;;;;;;;;;;;20.20;42.20;;;;;;1016593;29;19911;-68
2021/04/22 00:30:05;;;;;;;;;;;20.20;42.10;;;;;;1015983;29;19911;-72
2021/04/22 00:30:35;;;;;;;;;;;20.20;42.10;;;;;;1022173;29;19907;-67
2021/04/22 00:31:05;;;;;;;;;;;20.20;42.10;;;;;;1024611;29;20372;-69
2021/04/22 00:31:36;;;;;;;;;;;20.20;42.10;;;;;;1024363;29;19915;-69
2021/04/22 00:32:06;;;;;;;;;;;20.20;42.10;;;;;;1016647;29;19919;-69
2021/04/22 00:32:37;;;;;;;;;;;20.20;42.20;;;;;;1016406;29;20405;-69
2021/04/22 00:33:09;;;;;;;;;;;20.20;42.00;;;;;;1012381;29;19930;-68
2021/04/22 00:33:39;;;;;;;;;;;20.20;42.00;;;;;;1008937;29;19912;-68
2021/04/22 00:34:10;;;;;;;;;;;20.20;42.10;;;;;;1012804;29;19911;-69
2021/04/22 00:34:40;;;;;;;;;;;20.20;42.10;;;;;;1012760;29;19918;-68
2021/04/22 00:35:11;;;;;;;;;;;20.20;42.10;;;;;;1016647;29;20387;-69
2021/04/22 00:35:41;;;;;;;;;;;20.20;41.90;;;;;;1016661;29;19919;-68
2021/04/22 00:36:13;;;;;;;;;;;20.20;42.10;;;;;;1016618;29;19915;-69
2021/04/22 00:36:43;;;;;;;;;;;20.20;42.10;;;;;;1016403;29;20396;-67
2021/04/22 00:37:14;;;;;;;;;;;20.20;42.10;;;;;;1015430;29;19954;-68
2021/04/22 00:37:44;;;;;;;;;;;20.20;42.10;;;;;;1016608;29;19963;-69
2021/04/22 00:38:15;;;;;;;;;;;20.20;42.10;;;;;;1016490;29;19996;-69
2021/04/22 00:38:45;;;;;;;;;;;20.20;42.10;;;;;;1016111;29;19911;-69
2021/04/22 00:39:16;;;;;;;;;;;20.20;42.10;;;;;;1016919;29;20373;-68
2021/04/22 00:39:46;;;;;;;;;;;20.20;42.00;;;;;;1020488;29;19911;-68
2021/04/22 00:40:18;;;;;;;;;;;20.20;42.20;;;;;;1020557;29;20436;-69
2021/04/22 00:40:48;;;;;;;;;;;20.20;42.10;;;;;;1027626;28;19914;-68
2021/04/22 00:41:19;;;;;;;;;;;20.20;42.10;;;;;;1024212;29;20357;-69
2021/04/22 00:41:49;;;;;;;;;;;20.20;42.00;;;;;;1020526;29;19941;-69
2021/04/22 00:42:20;;;;;;;;;;;20.20;42.00;;;;;;1016436;29;19907;-67
2021/04/22 00:42:50;;;;;;;;;;;20.20;42.00;;;;;;1016453;29;20525;-69
2021/04/22 00:43:21;;;;;;;;;;;20.20;42.10;;;;;;1019961;29;19918;-69
2021/04/22 00:43:52;;;;;;;;;;;20.20;42.10;;;;;;1016634;29;20392;-69
2021/04/22 00:44:22;;;;;;;;;;;20.20;42.10;;;;;;1012704;29;19935;-68
2021/04/22 00:44:53;;;;;;;;;;;20.20;42.00;;;;;;1020499;29;19958;-69
2021/04/22 00:45:23;;;;;;;;;;;20.20;42.00;;;;;;1022165;28;19918;-69
2021/04/22 00:45:54;;;;;;;;;;;20.20;42.00;;;;;;1019796;29;19918;-69
2021/04/22 00:46:24;;;;;;;;;;;20.20;42.00;;;;;;1020150;29;19907;-68
2021/04/22 00:46:55;;;;;;;;;;;20.20;41.90;;;;;;1012675;29;20430;-69
2021/04/22 00:47:25;;;;;;;;;;;20.20;42.00;;;;;;1020354;29;19915;-69
2021/04/22 00:47:56;;;;;;;;;;;20.20;41.90;;;;;;1020515;29;19986;-69
2021/04/22 00:48:26;;;;;;;;;;;20.20;41.90;;;;;;1016321;29;19998;-68
2021/04/22 00:48:57;;;;;;;;;;;20.20;42.00;;;;;;1019952;29;19915;-69
2021/04/22 00:49:27;;;;;;;;;;;20.20;42.10;;;;;;1024234;29;19913;-69
2021/04/22 00:49:58;;;;;;;;;;;20.20;42.10;;;;;;1020542;29;19907;-69
2021/04/22 00:50:29;;;;;;;;;;;20.20;42.00;;;;;;1020052;29;19966;-68
2021/04/22 00:50:59;;;;;;;;;;;20.20;41.90;;;;;;1016968;29;19908;-69
2021/04/22 00:51:30;;;;;;;;;;;20.20;41.90;;;;;;1016294;29;19912;-69
2021/04/22 00:52:00;;;;;;;;;;;20.10;42.00;;;;;;1020579;29;19913;-68
2021/04/22 00:52:31;;;;;;;;;;;20.20;42.00;;;;;;1016510;29;20392;-69
2021/04/22 00:53:01;;;;;;;;;;;20.20;42.10;;;;;;1020422;29;19946;-69
2021/04/22 00:53:32;;;;;;;;;;;20.20;42.00;;;;;;1020055;29;19907;-69
2021/04/22 00:54:02;;;;;;;;;;;20.20;42.00;;;;;;1020179;29;19907;-69
2021/04/22 00:54:33;;;;;;;;;;;20.20;42.00;;;;;;1020354;29;19913;-67
2021/04/22 00:55:03;;;;;;;;;;;20.20;42.00;;;;;;1016665;29;20286;-68
2021/04/22 00:55:34;;;;;;;;;;;20.20;42.00;;;;;;1020158;29;20005;-69
2021/04/22 00:56:04;;;;;;;;;;;20.20;41.90;;;;;;1016530;29;19907;-69
2021/04/22 00:56:35;;;;;;;;;;;20.20;42.00;;;;;;1012529;29;20544;-68
2021/04/22 00:57:06;;;;;;;;;;;20.20;42.00;;;;;;1016580;29;20356;-69
2021/04/22 00:57:36;;;;;;;;;;;20.10;41.80;;;;;;1016298;29;19912;-69
2021/04/22 00:58:07;;;;;;;;;;;20.20;41.90;;;;;;1016419;29;19911;-69
2021/04/22 00:58:37;;;;;;;;;;;20.20;41.90;;;;;;1020110;29;19907;-69
2021/04/22 00:59:08;;;;;;;;;;;20.20;41.90;;;;;;1021617;29;19907;-69
2021/04/22 00:59:38;;;;;;;;;;;20.20;42.00;;;;;;1028149;28;19998;-69
2021/04/22 01:00:09;;;;;;;;;;;20.20;41.90;;;;;;1027730;28;19907;-68
2021/04/22 01:00:40;;;;;;;;;;;20.20;42.00;;;;;;1030658;28;19948;-68
2021/04/22 01:01:11;;;;;;;;;;;20.20;42.00;;;;;;1024521;29;20442;-68
2021/04/22 01:01:41;;;;;;;;;;;20.20;42.00;;;;;;1024336;28;19978;-69
2021/04/22 01:02:15;;;;;;;;;;;20.20;42.00;;;;;;1024337;29;20357;-69
2021/04/22 01:02:45;;;;;;;;;;;20.20;42.00;;;;;;1024287;28;19913;-67
2021/04/22 01:03:16;;;;;;;;;;;20.10;41.90;;;;;;1020103;29;19921;-68
2021/04/22 01:03:46;;;;;;;;;;;20.10;42.40;;;;;;1021488;28;20395;-68
2021/04/22 01:04:16;;;;;;;;;;;20.20;41.90;;;;;;1024093;28;19907;-69
2021/04/22 01:04:47;;;;;;;;;;;20.10;41.70;;;;;;1024192;29;19958;-69
2021/04/22 01:05:18;;;;;;;;;;;20.10;41.80;;;;;;1020461;29;20368;-68
2021/04/22 01:05:53;;;;;;;;;;;20.10;41.80;;;;;;1020283;29;19919;-69
2021/04/22 01:06:23;;;;;;;;;;;20.20;41.90;;;;;;1019664;29;20392;-67
2021/04/22 01:06:54;;;;;;;;;;;20.10;41.80;;;;;;1020477;29;19911;-69
2021/04/22 01:07:24;;;;;;;;;;;20.10;41.80;;;;;;1021445;28;20380;-69
2021/04/22 01:07:54;;;;;;;;;;;20.20;42.00;;;;;;1024288;29;19911;-69
2021/04/22 01:08:25;;;;;;;;;;;20.10;41.90;;;;;;1023701;28;19962;-67
2021/04/22 01:08:56;;;;;;;;;;;20.10;41.90;;;;;;1016148;29;19907;-69
2021/04/22 01:09:26;;;;;;;;;;;20.10;42.00;;;;;;1017126;29;19907;-69
2021/04/22 01:09:57;;;;;;;;;;;20.10;41.90;;;;;;1020370;29;20280;-69
2021/04/22 01:10:28;;;;;;;;;;;20.10;41.90;;;;;;1016194;29;19938;-68
2021/04/22 01:10:58;;;;;;;;;;;20.10;41.80;;;;;;1012549;29;19908;-69
2021/04/22 01:11:30;;;;;;;;;;;20.10;41.80;;;;;;1012668;29;19937;-69
2021/04/22 01:12:02;;;;;;;;;;;20.10;42.00;;;;;;1016789;29;20037;-69
2021/04/22 01:12:33;;;;;;;;;;;20.10;41.80;;;;;;1020846;29;20022;-69
2021/04/22 01:13:03;;;;;;;;;;;20.10;41.80;;;;;;1020510;28;19973;-69
2021/04/22 01:13:34;;;;;;;;;;;20.10;41.90;;;;;;1024283;29;19993;-68
2021/04/22 01:14:04;;;;;;;;;;;20.10;41.80;;;;;;1020343;29;19907;-69
2021/04/22 01:14:35;;;;;;;;;;;20.10;41.80;;;;;;1020155;29;20368;-69
2021/04/22 01:15:06;;;;;;;;;;;20.10;41.80;;;;;;1023704;28;19921;-68
2021/04/22 01:15:36;;;;;;;;;;;20.10;41.80;;;;;;1016531;29;20312;-69
2021/04/22 01:16:07;;;;;;;;;;;20.10;41.90;;;;;;1016457;29;19907;-69
2021/04/22 01:16:37;;;;;;;;;;;20.10;41.90;;;;;;1012275;29;19912;-69
2021/04/22 01:17:08;;;;;;;;;;;20.10;41.80;;;;;;1012728;29;19912;-68
2021/04/22 01:17:38;;;;;;;;;;;20.10;41.80;;;;;;1016509;29;19915;-68
2021/04/22 01:18:09;;;;;;;;;;;20.10;41.80;;;;;;1019900;29;19911;-68
2021/04/22 01:18:40;;;;;;;;;;;20.10;41.80;;;;;;1015783;29;19907;-69
2021/04/22 01:19:10;;;;;;;;;;;20.10;41.80;;;;;;1016625;29;20002;-69
2021/04/22 01:19:40;;;;;;;;;;;20.10;41.80;;;;;;1014826;29;19911;-68
2021/04/22 01:20:12;;;;;;;;;;;20.10;41.80;;;;;;1016576;29;20012;-69
2021/04/22 01:20:44;;;;;;;;;;;20.10;41.70;;;;;;1020160;29;19954;-69
2021/04/22 01:21:19;;;;;;;;;;;20.10;42.40;;;;;;1020881;29;19911;-69
2021/04/22 01:21:50;;;;;;;;;;;20.10;41.80;;;;;;1019415;29;20417;-69
2021/04/22 01:22:21;;;;;;;;;;;20.10;41.80;;;;;;1017445;29;20046;-68
2021/04/22 01:22:51;;;;;;;;;;;20.10;41.90;;;;;;1020399;29;20304;-69
2021/04/22 01:23:22;;;;;;;;;;;20.10;41.80;;;;;;1019790;29;19921;-69
2021/04/22 01:23:52;;;;;;;;;;;20.10;41.80;;;;;;1020687;29;20020;-68
2021/04/22 01:24:23;;;;;;;;;;;20.10;41.80;;;;;;1020104;29;19974;-69
2021/04/22 01:24:53;;;;;;;;;;;20.10;41.80;;;;;;1022984;29;20026;-68
2021/04/22 01:25:27;;;;;;;;;;;20.10;41.80;;;;;;1024193;29;19919;-69
2021/04/22 01:25:58;;;;;;;;;;;20.10;41.80;;;;;;1021082;29;20395;-69
2021/04/22 01:26:28;;;;;;;;;;;20.10;41.80;;;;;;1024245;29;19911;-67
2021/04/22 01:26:59;;;;;;;;;;;20.10;41.80;;;;;;1024235;29;21002;-68
2021/04/22 01:27:29;;;;;;;;;;;20.00;41.70;;;;;;1024230;29;19918;-68
2021/04/22 01:28:00;;;;;;;;;;;20.10;41.80;;;;;;1023610;28;19922;-70
2021/04/22 01:28:30;;;;;;;;;;;20.10;41.80;;;;;;1023878;29;20031;-66
2021/04/22 01:29:00;;;;;;;;;;;20.10;41.90;;;;;;1019957;29;19949;-67
2021/04/22 01:29:31;;;;;;;;;;;20.10;41.90;;;;;;1020289;29;19918;-69
2021/04/22 01:30:03;;;;;;;;;;;20.10;41.80;;;;;;1020411;29;19911;-69
2021/04/22 01:30:34;;;;;;;;;;;20.10;41.80;;;;;;1019930;29;20287;-70
2021/04/22 01:31:05;;;;;;;;;;;20.10;41.90;;;;;;1019968;29;20382;-69
2021/04/22 01:31:35;;;;;;;;;;;20.10;41.80;;;;;;1020530;29;19915;-69
2021/04/22 01:32:06;;;;;;;;;;;20.10;41.90;;;;;;1024288;29;20342;-69
2021/04/22 01:32:36;;;;;;;;;;;20.10;41.80;;;;;;1020261;29;20039;-69
2021/04/22 01:33:07;;;;;;;;;;;20.10;41.80;;;;;;1023784;28;19915;-68
2021/04/22 01:33:38;;;;;;;;;;;20.10;41.90;;;;;;1024137;29;20308;-68
2021/04/22 01:34:09;;;;;;;;;;;20.10;41.90;;;;;;1024366;29;20396;-69
2021/04/22 01:34:40;;;;;;;;;;;20.10;41.80;;;;;;1020102;29;19917;-68
2021/04/22 01:35:12;;;;;;;;;;;20.10;41.90;;;;;;1019950;29;20316;-68
2021/04/22 01:35:43;;;;;;;;;;;20.10;41.90;;;;;;1024023;29;20411;-69
2021/04/22 01:36:13;;;;;;;;;;;20.10;41.90;;;;;;1020720;29;20069;-69
2021/04/22 01:36:44;;;;;;;;;;;20.10;41.90;;;;;;1024095;29;19906;-69
2021/04/22 01:37:14;;;;;;;;;;;20.10;41.80;;;;;;1028106;28;20298;-69
2021/04/22 01:37:45;;;;;;;;;;;20.10;41.80;;;;;;1028106;28;19911;-70
2021/04/22 01:38:15;;;;;;;;;;;20.10;41.80;;;;;;1021523;29;20368;-68
2021/04/22 01:38:46;;;;;;;;;;;20.10;41.80;;;;;;1015718;29;19919;-69
2021/04/22 01:39:16;;;;;;;;;;;20.10;41.80;;;;;;1016313;29;20401;-69
2021/04/22 01:39:47;;;;;;;;;;;20.10;41.90;;;;;;1020250;29;19986;-69
2021/04/22 01:40:17;;;;;;;;;;;20.10;41.80;;;;;;1021172;28;19914;-69
2021/04/22 01:40:48;;;;;;;;;;;20.10;41.70;;;;;;1023955;29;19914;-68
2021/04/22 01:41:18;;;;;;;;;;;20.10;41.90;;;;;;1019998;29;19921;-68
2021/04/22 01:41:49;;;;;;;;;;;20.10;41.90;;;;;;1020413;29;20600;-69
2021/04/22 01:42:19;;;;;;;;;;;20.10;41.70;;;;;;1020322;29;19911;-69
2021/04/22 01:42:50;;;;;;;;;;;20.10;41.80;;;;;;1024141;29;20388;-68
2021/04/22 01:43:20;;;;;;;;;;;20.10;41.80;;;;;;1018449;29;20017;-68
2021/04/22 01:43:50;;;;;;;;;;;20.10;41.80;;;;;;1024290;28;19911;-69
2021/04/22 01:44:21;;;;;;;;;;;20.10;41.90;;;;;;1032150;28;19910;-69
2021/04/22 01:44:51;;;;;;;;;;;20.10;41.90;;;;;;1030115;28;20304;-67
2021/04/22 01:45:22;;;;;;;;;;;20.10;41.90;;;;;;1031228;28;19910;-68
2021/04/22 01:45:52;;;;;;;;;;;20.10;41.80;;;;;;1024466;29;19961;-68
2021/04/22 01:46:23;;;;;;;;;;;20.10;41.80;;;;;;1027914;28;19916;-69
2021/04/22 01:46:53;;;;;;;;;;;20.10;41.90;;;;;;1024186;29;19922;-69
2021/04/22 01:47:24;;;;;;;;;;;20.10;41.90;;;;;;1024041;29;19917;-67
2021/04/22 01:47:54;;;;;;;;;;;20.10;42.00;;;;;;1024208;28;19911;-69
2021/04/22 01:48:25;;;;;;;;;;;20.10;41.80;;;;;;1016222;29;19922;-69
2021/04/22 01:48:55;;;;;;;;;;;20.10;41.80;;;;;;1019984;29;20462;-69
2021/04/22 01:49:26;;;;;;;;;;;20.10;41.80;;;;;;1020120;29;19965;-67
2021/04/22 01:49:56;;;;;;;;;;;20.10;41.80;;;;;;1020092;29;19910;-68
2021/04/22 01:50:27;;;;;;;;;;;20.10;41.80;;;;;;1024061;29;19997;-69
2021/04/22 01:50:57;;;;;;;;;;;20.10;41.90;;;;;;1024351;28;20371;-69
2021/04/22 01:51:28;;;;;;;;;;;20.10;41.80;;;;;;1024186;29;19912;-68
2021/04/22 01:51:58;;;;;;;;;;;20.10;41.80;;;;;;1024091;29;19921;-68
2021/04/22 01:52:29;;;;;;;;;;;20.10;42.00;;;;;;1024013;29;20243;-69
2021/04/22 01:52:59;;;;;;;;;;;20.10;41.80;;;;;;1015956;29;20006;-72
2021/04/22 01:53:30;;;;;;;;;;;20.10;41.80;;;;;;1023997;29;19951;-69
2021/04/22 01:54:00;;;;;;;;;;;20.10;41.90;;;;;;1020157;29;19921;-67
2021/04/22 01:54:31;;;;;;;;;;;20.10;41.90;;;;;;1027986;28;19910;-68
2021/04/22 01:55:01;;;;;;;;;;;20.10;41.90;;;;;;1026413;28;20126;-69
2021/04/22 01:55:33;;;;;;;;;;;20.10;41.80;;;;;;1020154;29;19996;-69
2021/04/22 01:56:04;;;;;;;;;;;20.10;41.80;;;;;;1015846;29;19951;-69
2021/04/22 01:56:34;;;;;;;;;;;20.00;41.80;;;;;;1016379;29;19911;-68
2021/04/22 01:57:05;;;;;;;;;;;20.10;41.90;;;;;;1016707;29;19958;-68
2021/04/22 01:57:36;;;;;;;;;;;20.00;41.80;;;;;;1020243;29;19911;-68
2021/04/22 01:58:07;;;;;;;;;;;20.10;41.80;;;;;;1019594;29;19914;-67
2021/04/22 01:58:37;;;;;;;;;;;20.10;41.80;;;;;;1015936;29;19914;-69
2021/04/22 01:59:07;;;;;;;;;;;20.10;41.90;;;;;;1023995;29;19953;-70
2021/04/22 01:59:38;;;;;;;;;;;20.00;41.80;;;;;;1020109;29;20305;-69
2021/04/22 02:00:15;;;;;;;;;;;20.00;41.80;;;;;;1031164;28;19910;-67
2021/04/22 02:00:49;;;;;;;;;;;20.10;41.90;;;;;;1031156;28;19912;-69
2021/04/22 02:01:20;;;;;;;;;;;20.00;41.80;;;;;;1031975;28;20000;-68
2021/04/22 02:01:50;;;;;;;;;;;20.10;41.90;;;;;;1032160;28;19917;-68
2021/04/22 02:02:21;;;;;;;;;;;20.10;41.80;;;;;;1027983;28;19910;-68
2021/04/22 02:02:51;;;;;;;;;;;20.10;41.80;;;;;;1023993;28;19917;-68
2021/04/22 02:03:22;;;;;;;;;;;20.10;41.80;;;;;;1019515;28;20307;-69
2021/04/22 02:03:52;;;;;;;;;;;20.00;41.80;;;;;;1024137;28;20001;-69
2021/04/22 02:04:23;;;;;;;;;;;20.00;41.80;;;;;;1023943;29;19914;-67
2021/04/22 02:04:53;;;;;;;;;;;20.10;41.90;;;;;;1019532;29;20444;-68
2021/04/22 02:05:24;;;;;;;;;;;20.00;41.80;;;;;;1020083;29;19910;-69
2021/04/22 02:05:54;;;;;;;;;;;20.00;41.70;;;;;;1016309;29;19919;-69
2021/04/22 02:06:25;;;;;;;;;;;20.00;41.80;;;;;;1016115;29;20412;-67
2021/04/22 02:06:55;;;;;;;;;;;20.00;41.80;;;;;;1024037;29;19961;-69
2021/04/22 02:07:26;;;;;;;;;;;20.00;41.80;;;;;;1020018;29;19914;-69
2021/04/22 02:07:56;;;;;;;;;;;20.00;41.80;;;;;;1020091;29;19921;-69
2021/04/22 02:08:27;;;;;;;;;;;20.00;41.90;;;;;;1022909;29;19914;-69
2021/04/22 02:08:57;;;;;;;;;;;20.00;41.90;;;;;;1019806;29;19950;-68
2021/04/22 02:09:27;;;;;;;;;;;20.00;41.80;;;;;;1020048;29;19966;-69
2021/04/22 02:09:58;;;;;;;;;;;20.00;41.80;;;;;;1020108;29;19911;-69
2021/04/22 02:10:28;;;;;;;;;;;20.10;41.90;;;;;;1019891;29;19911;-69
2021/04/22 02:10:59;;;;;;;;;;;20.00;41.80;;;;;;1016303;29;20345;-69
2021/04/22 02:11:30;;;;;;;;;;;20.00;41.80;;;;;;1012162;29;19912;-69
2021/04/22 02:12:00;;;;;;;;;;;20.00;41.80;;;;;;1016312;29;19911;-69
2021/04/22 02:12:31;;;;;;;;;;;20.00;41.80;;;;;;1016072;29;19967;-69
2021/04/22 02:13:01;;;;;;;;;;;20.10;42.00;;;;;;1019788;28;20349;-67
2021/04/22 02:13:32;;;;;;;;;;;20.00;41.80;;;;;;1019843;29;19907;-68
2021/04/22 02:14:02;;;;;;;;;;;20.10;41.90;;;;;;1020170;29;19962;-69
2021/04/22 02:14:33;;;;;;;;;;;20.10;41.80;;;;;;1019603;29;19911;-69
2021/04/22 02:15:07;;;;;;;;;;;20.00;41.80;;;;;;1020240;28;20285;-69
2021/04/22 02:15:37;;;;;;;;;;;20.00;41.80;;;;;;1022738;29;20009;-68
2021/04/22 02:16:08;;;;;;;;;;;20.10;41.90;;;;;;1023473;29;19910;-69
2021/04/22 02:16:39;;;;;;;;;;;20.00;41.80;;;;;;1023422;28;19906;-68
2021/04/22 02:17:09;;;;;;;;;;;20.00;41.90;;;;;;1024256;28;19907;-69
2021/04/22 02:17:40;;;;;;;;;;;20.10;41.90;;;;;;1023945;29;19914;-68
2021/04/22 02:18:10;;;;;;;;;;;20.00;41.90;;;;;;1019433;29;20403;-69
2021/04/22 02:18:40;;;;;;;;;;;20.00;41.90;;;;;;1019515;29;19921;-69
2021/04/22 02:19:12;;;;;;;;;;;20.10;42.00;;;;;;1016261;29;20293;-69
2021/04/22 02:19:42;;;;;;;;;;;20.00;42.00;;;;;;1019993;29;19911;-69
2021/04/22 02:20:13;;;;;;;;;;;20.10;42.00;;;;;;1016286;29;19915;-69
2021/04/22 02:20:43;;;;;;;;;;;20.00;41.90;;;;;;1012307;29;19908;-69
2021/04/22 02:21:14;;;;;;;;;;;20.00;42.00;;;;;;1020085;29;20368;-68
2021/04/22 02:21:44;;;;;;;;;;;20.00;42.00;;;;;;1019973;29;19907;-68
2021/04/22 02:22:15;;;;;;;;;;;20.00;41.90;;;;;;1020119;29;19914;-69
2021/04/22 02:22:45;;;;;;;;;;;20.00;41.90;;;;;;1023929;29;19906;-69
2021/04/22 02:23:16;;;;;;;;;;;20.00;41.80;;;;;;1022688;28;19911;-67
2021/04/22 02:23:47;;;;;;;;;;;20.00;41.90;;;;;;1020060;28;20368;-69
2021/04/22 02:24:17;;;;;;;;;;;20.00;41.90;;;;;;1020019;29;19911;-69
2021/04/22 02:24:48;;;;;;;;;;;20.00;41.90;;;;;;1017662;29;19954;-68
2021/04/22 02:25:19;;;;;;;;;;;20.00;41.80;;;;;;1020019;29;20613;-68
2021/04/22 02:25:49;;;;;;;;;;;20.00;41.80;;;;;;1020149;29;19918;-69
2021/04/22 02:26:20;;;;;;;;;;;20.00;41.90;;;;;;1024017;29;19906;-69
2021/04/22 02:26:50;;;;;;;;;;;20.00;41.90;;;;;;1015873;29;19978;-68
2021/04/22 02:27:21;;;;;;;;;;;20.00;41.80;;;;;;1012112;29;19918;-69
2021/04/22 02:27:51;;;;;;;;;;;20.00;41.80;;;;;;1016201;29;20419;-69
2021/04/22 02:28:22;;;;;;;;;;;20.00;41.90;;;;;;1015951;29;19911;-69
2021/04/22 02:28:52;;;;;;;;;;;20.00;41.90;;;;;;1027024;28;20538;-68
2021/04/22 02:29:22;;;;;;;;;;;20.00;41.80;;;;;;1027806;28;19914;-68
2021/04/22 02:29:53;;;;;;;;;;;20.00;41.80;;;;;;1024179;29;19910;-69
2021/04/22 02:30:24;;;;;;;;;;;20.10;41.90;;;;;;1020566;29;19919;-69
2021/04/22 02:30:55;;;;;;;;;;;20.10;42.00;;;;;;1020158;29;19907;-69
2021/04/22 02:31:25;;;;;;;;;;;20.10;41.80;;;;;;1019721;29;19997;-69
2021/04/22 02:31:56;;;;;;;;;;;20.10;41.80;;;;;;1020014;29;19910;-69
2021/04/22 02:32:26;;;;;;;;;;;20.10;41.90;;;;;;1023759;28;19918;-67
2021/04/22 02:32:57;;;;;;;;;;;20.10;41.80;;;;;;1023967;29;20292;-68
2021/04/22 02:33:28;;;;;;;;;;;20.10;41.80;;;;;;1018846;29;19914;-69
2021/04/22 02:33:58;;;;;;;;;;;20.10;41.80;;;;;;1019899;29;19954;-68
2021/04/22 02:34:29;;;;;;;;;;;20.10;41.80;;;;;;1015880;29;20002;-69
2021/04/22 02:34:59;;;;;;;;;;;20.10;41.80;;;;;;1019787;29;20368;-69
2021/04/22 02:35:30;;;;;;;;;;;20.10;41.80;;;;;;1019596;29;19918;-69
2021/04/22 02:36:01;;;;;;;;;;;20.10;41.80;;;;;;1020037;29;19903;-69
2021/04/22 02:36:31;;;;;;;;;;;20.10;41.70;;;;;;1019745;29;19911;-69
2021/04/22 02:37:02;;;;;;;;;;;20.10;41.70;;;;;;1015808;29;19975;-69
2021/04/22 02:37:32;;;;;;;;;;;20.10;41.80;;;;;;1011979;29;19934;-69
2021/04/22 02:38:04;;;;;;;;;;;20.10;41.70;;;;;;1008540;29;19920;-67
2021/04/22 02:38:34;;;;;;;;;;;20.10;41.80;;;;;;1012006;29;19908;-69
2021/04/22 02:39:05;;;;;;;;;;;20.10;41.80;;;;;;1016237;29;20009;-69
2021/04/22 02:39:35;;;;;;;;;;;20.10;41.60;;;;;;1020046;29;19950;-69
2021/04/22 02:40:07;;;;;;;;;;;20.10;41.90;;;;;;1024149;28;19922;-68
2021/04/22 02:40:37;;;;;;;;;;;20.10;41.80;;;;;;1027894;28;19917;-68
2021/04/22 02:41:08;;;;;;;;;;;20.10;41.60;;;;;;1023970;29;19925;-69
2021/04/22 02:41:38;;;;;;;;;;;20.10;41.80;;;;;;1019872;29;20307;-69
2021/04/22 02:42:09;;;;;;;;;;;20.10;41.70;;;;;;1014035;29;19911;-69
2021/04/22 02:42:39;;;;;;;;;;;20.10;41.80;;;;;;1012202;29;20018;-68
2021/04/22 02:43:11;;;;;;;;;;;20.10;41.60;;;;;;1015865;29;19934;-69
2021/04/22 02:43:41;;;;;;;;;;;20.10;42.50;;;;;;1024027;28;19907;-69
2021/04/22 02:44:12;;;;;;;;;;;20.10;41.70;;;;;;1027929;28;19910;-69
2021/04/22 02:44:42;;;;;;;;;;;20.10;41.70;;;;;;1028207;28;19933;-69
2021/04/22 02:45:17;;;;;;;;;;;20.10;41.70;;;;;;1027225;28;19910;-69
2021/04/22 02:45:48;;;;;;;;;;;20.10;41.80;;;;;;1027821;28;19910;-68
2021/04/22 02:46:19;;;;;;;;;;;20.10;41.60;;;;;;1027843;28;19969;-68
2021/04/22 02:46:49;;;;;;;;;;;20.10;41.70;;;;;;1023897;29;20436;-67
2021/04/22 02:47:20;;;;;;;;;;;20.10;41.70;;;;;;1023776;29;19911;-69
2021/04/22 02:47:50;;;;;;;;;;;20.10;41.60;;;;;;1016010;29;19970;-69
2021/04/22 02:48:21;;;;;;;;;;;20.10;41.60;;;;;;1015666;29;19928;-69
2021/04/22 02:48:52;;;;;;;;;;;20.10;41.60;;;;;;1023499;29;19954;-69
2021/04/22 02:49:22;;;;;;;;;;;20.10;41.70;;;;;;1024015;29;19911;-69
2021/04/22 02:49:53;;;;;;;;;;;20.10;41.60;;;;;;1024206;28;19911;-69
2021/04/22 02:50:24;;;;;;;;;;;20.10;41.50;;;;;;1023837;29;20443;-69
2021/04/22 02:50:55;;;;;;;;;;;20.10;41.60;;;;;;1020388;29;20415;-69
2021/04/22 02:51:25;;;;;;;;;;;20.10;41.70;;;;;;1020364;29;19911;-70
2021/04/22 02:51:56;;;;;;;;;;;20.10;41.50;;;;;;1028112;28;19921;-69
2021/04/22 02:52:26;;;;;;;;;;;20.10;41.60;;;;;;1023829;29;19914;-69
2021/04/22 02:52:57;;;;;;;;;;;20.10;41.80;;;;;;1024128;29;20288;-69
2021/04/22 02:53:27;;;;;;;;;;;20.10;41.80;;;;;;1019512;29;19914;-68
2021/04/22 02:53:58;;;;;;;;;;;20.10;41.80;;;;;;1016304;29;19911;-69
2021/04/22 02:54:28;;;;;;;;;;;20.10;41.70;;;;;;1019666;29;19914;-68
2021/04/22 02:54:59;;;;;;;;;;;20.00;41.60;;;;;;1020371;29;19915;-68
2021/04/22 02:55:29;;;;;;;;;;;20.10;41.70;;;;;;1019759;29;20320;-67
2021/04/22 02:55:59;;;;;;;;;;;20.10;41.70;;;;;;1023959;28;19917;-67
2021/04/22 02:56:30;;;;;;;;;;;20.10;41.50;;;;;;1027675;28;19907;-69
2021/04/22 02:57:00;;;;;;;;;;;20.00;41.70;;;;;;1023905;29;19937;-68
2021/04/22 02:57:31;;;;;;;;;;;20.10;41.80;;;;;;1023797;29;20352;-68
2021/04/22 02:58:01;;;;;;;;;;;20.00;41.70;;;;;;1019567;28;19961;-68
2021/04/22 02:58:32;;;;;;;;;;;20.00;41.50;;;;;;1019392;29;20029;-70